createdAt,value
2018-08-19T00:01:52.376Z,73.33
2018-08-19T00:04:26.737Z,73.88
2018-08-19T00:07:09.512Z,74.18
2018-08-19T00:09:46.958Z,73.75
2018-08-19T00:12:32.695Z,74.44
2018-08-19T00:15:08.870Z,73.89
2018-08-19T00:17:44.816Z,74.80
2018-08-19T00:20:19.649Z,74.70
2018-08-19T00:22:54.409Z,74.25
2018-08-19T00:25:38.735Z,74.74
2018-08-19T00:28:14.724Z,75.04
2018-08-19T00:30:49.485Z,75.19
2018-08-19T00:33:24.896Z,75.20
2018-08-19T00:36:02.348Z,75.06
2018-08-19T00:38:39.184Z,74.92
2018-08-19T00:41:14.458Z,74.46
2018-08-19T00:43:49.508Z,74.99
2018-08-19T00:46:33.066Z,75.13
2018-08-19T00:49:08.193Z,74.53
2018-08-19T00:51:48.644Z,74.97
2018-08-19T00:54:23.266Z,75.05
2018-08-19T00:57:02.406Z,75.29
2018-08-19T00:59:39.491Z,74.98
2018-08-19T01:02:13.941Z,75.15
2018-08-19T01:04:48.721Z,74.97
2018-08-19T01:07:24.296Z,75.97
2018-08-19T01:09:59.705Z,75.48
2018-08-19T01:12:35.556Z,75.31
2018-08-19T01:15:15.998Z,74.62
2018-08-19T01:17:57.882Z,75.78
2018-08-19T01:20:33.850Z,75.17
2018-08-19T01:23:09.670Z,75.58
2018-08-19T01:25:44.424Z,75.74
2018-08-19T01:28:20.714Z,74.96
2018-08-19T01:30:56.227Z,74.66
2018-08-19T01:33:31.135Z,74.92
2018-08-19T01:36:08.237Z,75.58
2018-08-19T01:41:41.875Z,75.16
2018-08-19T01:44:16.363Z,75.03
2018-08-19T01:46:51.277Z,74.93
2018-08-19T01:49:30.415Z,74.88
2018-08-19T01:52:10.431Z,75.32
2018-08-19T01:54:45.513Z,75.49
2018-08-19T01:57:20.172Z,74.10
2018-08-19T01:59:56.520Z,74.87
2018-08-19T02:02:32.837Z,75.23
2018-08-19T02:05:07.472Z,75.60
2018-08-19T02:07:42.376Z,75.37
2018-08-19T02:10:20.536Z,75.29
2018-08-19T02:12:56.170Z,75.24
2018-08-19T02:15:38.427Z,74.62
2018-08-19T02:18:13.353Z,75.23
2018-08-19T02:20:48.826Z,74.69
2018-08-19T02:23:23.816Z,74.82
2018-08-19T02:25:58.673Z,74.74
2018-08-19T02:28:33.005Z,74.78
2018-08-19T02:31:07.559Z,75.00
2018-08-19T02:33:42.486Z,74.81
2018-08-19T02:36:17.179Z,75.44
2018-08-19T02:38:51.603Z,74.93
2018-08-19T02:41:26.136Z,75.11
2018-08-19T02:44:00.494Z,74.93
2018-08-19T02:46:35.148Z,75.11
2018-08-19T02:49:09.662Z,74.64
2018-08-19T02:51:44.560Z,75.48
2018-08-19T02:54:19.584Z,75.70
2018-08-19T02:56:54.132Z,76.37
2018-08-19T02:59:28.744Z,76.22
2018-08-19T03:02:03.252Z,76.58
2018-08-19T03:04:38.327Z,76.43
2018-08-19T03:07:12.872Z,75.29
2018-08-19T03:09:49.704Z,76.18
2018-08-19T03:12:24.325Z,76.17
2018-08-19T03:14:59.217Z,76.46
2018-08-19T03:17:34.224Z,76.85
2018-08-19T03:20:10.544Z,75.63
2018-08-19T03:22:44.919Z,75.82
2018-08-19T03:25:19.974Z,76.48
2018-08-19T03:27:54.843Z,76.31
2018-08-19T03:30:29.313Z,76.24
2018-08-19T03:33:03.593Z,76.25
2018-08-19T03:35:38.079Z,76.03
2018-08-19T03:38:13.772Z,76.35
2018-08-19T03:40:48.529Z,76.69
2018-08-19T03:43:23.017Z,76.77
2018-08-19T03:46:00.714Z,76.73
2018-08-19T03:48:35.120Z,76.93
2018-08-19T03:51:12.506Z,76.39
2018-08-19T03:53:47.028Z,76.61
2018-08-19T03:56:26.669Z,77.40
2018-08-19T03:59:00.972Z,76.87
2018-08-19T04:01:43.084Z,76.78
2018-08-19T04:04:17.636Z,77.43
2018-08-19T04:06:52.213Z,77.26
2018-08-19T04:09:26.677Z,76.80
2018-08-19T04:12:07.740Z,76.87
2018-08-19T04:14:42.296Z,77.30
2018-08-19T04:17:16.862Z,77.29
2018-08-19T04:19:51.549Z,76.99
2018-08-19T04:22:26.521Z,77.50
2018-08-19T04:25:01.082Z,77.66
2018-08-19T04:27:35.662Z,78.37
2018-08-19T04:30:10.136Z,78.42
2018-08-19T04:32:44.548Z,78.13
2018-08-19T04:35:19.080Z,78.06
2018-08-19T04:37:53.632Z,78.35
2018-08-19T04:40:28.853Z,78.53
2018-08-19T04:43:03.160Z,78.91
2018-08-19T04:45:37.618Z,77.91
2018-08-19T04:48:12.279Z,78.33
2018-08-19T04:50:47.329Z,78.78
2018-08-19T04:53:21.954Z,78.24
2018-08-19T04:55:56.692Z,78.40
2018-08-19T04:58:31.400Z,78.26
2018-08-19T05:01:06.076Z,78.60
2018-08-19T05:03:43.167Z,78.57
2018-08-19T05:06:18.194Z,79.06
2018-08-19T05:08:52.679Z,78.96
2018-08-19T05:11:27.972Z,79.28
2018-08-19T05:14:02.272Z,78.68
2018-08-19T05:16:36.589Z,78.24
2018-08-19T05:19:11.512Z,78.40
2018-08-19T05:21:46.017Z,78.66
2018-08-19T05:24:20.440Z,78.15
2018-08-19T05:26:59.736Z,78.84
2018-08-19T05:29:34.021Z,78.05
2018-08-19T05:32:12.969Z,77.81
2018-08-19T05:34:47.802Z,77.90
2018-08-19T05:37:22.716Z,77.84
2018-08-19T05:39:59.420Z,77.60
2018-08-19T05:42:34.092Z,77.98
2018-08-19T05:45:08.528Z,77.68
2018-08-19T05:47:42.977Z,77.10
2018-08-19T05:50:17.696Z,77.10
2018-08-19T05:52:52.161Z,77.22
2018-08-19T05:55:26.819Z,76.58
2018-08-19T05:58:01.995Z,75.96
2018-08-19T06:00:40.352Z,75.80
2018-08-19T06:03:14.800Z,74.32
2018-08-19T06:05:49.280Z,75.03
2018-08-19T06:08:23.743Z,76.38
2018-08-19T06:10:59.139Z,75.77
2018-08-19T06:13:33.897Z,74.17
2018-08-19T06:16:08.756Z,74.68
2018-08-19T06:18:43.460Z,74.98
2018-08-19T06:21:18.261Z,75.25
2018-08-19T06:23:52.769Z,73.80
2018-08-19T06:26:31.465Z,73.02
2018-08-19T06:29:06.271Z,72.43
2018-08-19T06:31:40.625Z,74.20
2018-08-19T06:34:15.031Z,74.07
2018-08-19T06:36:49.388Z,74.26
2018-08-19T06:39:23.872Z,74.37
2018-08-19T06:41:58.300Z,73.52
2018-08-19T06:44:32.612Z,72.84
2018-08-19T06:47:07.854Z,72.04
2018-08-19T06:49:48.516Z,72.27
2018-08-19T06:52:23.963Z,71.42
2018-08-19T06:54:58.581Z,71.40
2018-08-19T06:57:33.467Z,71.69
2018-08-19T07:00:13.151Z,68.36
2018-08-19T07:02:48.948Z,70.49
2018-08-19T07:05:23.710Z,68.00
2018-08-19T07:07:58.657Z,65.48
2018-08-19T07:10:41.487Z,68.47
2018-08-19T07:13:17.199Z,70.40
2018-08-19T07:15:53.450Z,69.17
2018-08-19T07:18:28.372Z,68.98
2018-08-19T07:21:04.211Z,68.81
2018-08-19T07:23:38.846Z,68.99
2018-08-19T07:26:14.088Z,68.00
2018-08-19T07:28:49.021Z,68.02
2018-08-19T07:31:23.646Z,66.10
2018-08-19T07:33:58.207Z,65.43
2018-08-19T07:36:33.029Z,66.15
2018-08-19T07:39:08.458Z,65.57
2018-08-19T07:41:43.072Z,66.85
2018-08-19T07:44:17.460Z,63.38
2018-08-19T07:46:52.844Z,64.76
2018-08-19T07:49:27.163Z,65.50
2018-08-19T07:52:01.976Z,65.54
2018-08-19T07:54:36.912Z,61.44
2018-08-19T07:57:21.736Z,61.13
2018-08-19T07:59:56.739Z,61.41
2018-08-19T08:02:32.344Z,60.54
2018-08-19T08:05:08.285Z,60.94
2018-08-19T08:07:49.350Z,60.71
2018-08-19T08:10:24.212Z,61.58
2018-08-19T08:13:04.415Z,60.73
2018-08-19T08:15:44.527Z,59.72
2018-08-19T08:18:19.496Z,61.99
2018-08-19T08:20:59.264Z,57.74
2018-08-19T08:23:34.188Z,60.78
2018-08-19T08:26:09.259Z,55.31
2018-08-19T08:28:50.668Z,56.06
2018-08-19T08:31:25.677Z,56.90
2018-08-19T08:34:00.916Z,57.54
2018-08-19T08:36:35.196Z,56.40
2018-08-19T08:39:09.622Z,59.04
2018-08-19T08:41:43.955Z,56.80
2018-08-19T08:44:18.260Z,55.20
2018-08-19T08:46:52.781Z,51.72
2018-08-19T08:49:32.651Z,52.06
2018-08-19T08:52:15.148Z,53.53
2018-08-19T08:54:52.652Z,50.74
2018-08-19T08:57:27.470Z,51.51
2018-08-19T09:00:02.440Z,49.12
2018-08-19T09:02:36.899Z,50.74
2018-08-19T09:05:20.270Z,52.65
2018-08-19T09:07:55.228Z,49.34
2018-08-19T09:10:29.853Z,48.97
2018-08-19T09:13:04.444Z,46.91
2018-08-19T09:15:39.428Z,48.67
2018-08-19T09:18:15.928Z,48.54
2018-08-19T09:20:51.041Z,46.24
2018-08-19T09:23:26.054Z,46.09
2018-08-19T09:26:05.015Z,50.64
2018-08-19T09:28:40.061Z,48.27
2018-08-19T09:31:15.328Z,42.91
2018-08-19T09:33:50.427Z,42.71
2018-08-19T09:36:25.576Z,46.02
2018-08-19T09:39:00.324Z,47.95
2018-08-19T09:41:35.012Z,45.70
2018-08-19T09:44:09.775Z,45.50
2018-08-19T09:46:44.888Z,41.90
2018-08-19T09:49:26.125Z,43.41
2018-08-19T09:52:08.613Z,44.28
2018-08-19T09:54:45.555Z,44.47
2018-08-19T09:57:21.195Z,42.06
2018-08-19T09:59:56.960Z,44.50
2018-08-19T10:02:34.665Z,41.43
2018-08-19T10:05:15.089Z,41.04
2018-08-19T10:07:53.392Z,42.89
2018-08-19T10:10:28.781Z,40.84
2018-08-19T10:13:04.331Z,38.46
2018-08-19T10:15:38.880Z,42.11
2018-08-19T10:18:13.472Z,40.22
2018-08-19T10:20:48.201Z,42.35
2018-08-19T10:23:23.921Z,39.71
2018-08-19T10:26:05.316Z,39.59
2018-08-19T10:28:40.193Z,43.11
2018-08-19T10:31:19.378Z,41.22
2018-08-19T10:33:54.073Z,39.80
2018-08-19T10:36:29.057Z,40.31
2018-08-19T10:39:04.242Z,41.35
2018-08-19T10:41:39.359Z,39.01
2018-08-19T10:44:14.425Z,42.35
2018-08-19T10:46:51.500Z,40.74
2018-08-19T10:49:26.239Z,39.35
2018-08-19T10:52:01.623Z,38.75
2018-08-19T10:54:36.461Z,36.01
2018-08-19T10:57:18.036Z,36.37
2018-08-19T10:59:55.041Z,36.51
2018-08-19T11:02:30.221Z,38.31
2018-08-19T11:05:05.156Z,32.63
2018-08-19T11:07:40.467Z,32.36
2018-08-19T11:10:26.255Z,36.16
2018-08-19T11:13:01.093Z,36.50
2018-08-19T11:15:43.661Z,33.81
2018-08-19T11:21:18.822Z,37.01
2018-08-19T11:23:53.436Z,34.55
2018-08-19T11:26:28.167Z,34.63
2018-08-19T11:29:05.693Z,33.76
2018-08-19T11:31:42.959Z,34.96
2018-08-19T11:34:17.721Z,32.81
2018-08-19T11:36:53.410Z,35.02
2018-08-19T11:39:33.384Z,38.21
2018-08-19T11:42:07.844Z,35.23
2018-08-19T11:44:42.653Z,33.51
2018-08-19T11:47:17.473Z,33.56
2018-08-19T11:49:51.944Z,31.72
2018-08-19T11:52:26.412Z,34.16
2018-08-19T11:55:01.260Z,31.36
2018-08-19T11:57:35.757Z,33.84
2018-08-19T12:00:11.047Z,32.43
2018-08-19T12:02:45.502Z,33.36
2018-08-19T12:05:20.666Z,31.17
2018-08-19T12:07:59.701Z,36.37
2018-08-19T12:10:34.427Z,34.31
2018-08-19T12:15:51.190Z,30.59
2018-08-19T12:18:26.420Z,34.08
2018-08-19T12:21:00.835Z,35.01
2018-08-19T12:23:35.344Z,32.77
2018-08-19T12:26:10.152Z,32.66
2018-08-19T12:28:45.292Z,36.45
2018-08-19T12:31:20.682Z,32.96
2018-08-19T12:33:57.032Z,35.05
2018-08-19T12:36:32.501Z,32.19
2018-08-19T12:39:09.853Z,32.75
2018-08-19T12:41:49.651Z,35.06
2018-08-19T12:44:25.309Z,30.71
2018-08-19T12:47:15.773Z,28.95
2018-08-19T12:50:00.300Z,31.41
2018-08-19T12:52:35.560Z,29.17
2018-08-19T12:55:13.214Z,30.52
2018-08-19T12:57:54.167Z,29.92
2018-08-19T13:00:32.648Z,30.23
2018-08-19T13:03:09.129Z,30.91
2018-08-19T13:05:57.436Z,32.92
2018-08-19T13:08:32.223Z,34.54
2018-08-19T13:11:07.841Z,33.78
2018-08-19T13:13:43.542Z,30.35
2018-08-19T13:16:19.797Z,33.80
2018-08-19T13:18:55.462Z,31.36
2018-08-19T13:21:33.038Z,36.76
2018-08-19T13:24:07.979Z,38.04
2018-08-19T13:26:42.327Z,33.23
2018-08-19T13:29:16.916Z,34.12
2018-08-19T13:31:51.514Z,33.10
2018-08-19T13:34:26.849Z,35.52
2018-08-19T13:37:01.588Z,33.60
2018-08-19T13:39:36.446Z,32.22
2018-08-19T13:42:17.316Z,34.39
2018-08-19T13:44:56.228Z,30.58
2018-08-19T13:47:31.188Z,33.14
2018-08-19T13:50:06.540Z,32.22
2018-08-19T13:52:41.350Z,31.60
2018-08-19T13:55:17.596Z,34.08
2018-08-19T13:57:52.456Z,30.18
2018-08-19T14:00:33.419Z,27.97
2018-08-19T14:03:07.856Z,32.23
2018-08-19T14:05:42.156Z,29.68
2018-08-19T14:08:16.866Z,29.36
2018-08-19T14:10:51.541Z,32.51
2018-08-19T14:13:26.328Z,32.27
2018-08-19T14:16:00.853Z,31.00
2018-08-19T14:18:35.378Z,31.08
2018-08-19T14:21:09.909Z,28.79
2018-08-19T14:23:45.356Z,28.58
2018-08-19T14:26:20.601Z,31.62
2018-08-19T14:28:55.289Z,30.76
2018-08-19T14:31:30.337Z,29.87
2018-08-19T14:34:05.569Z,29.90
2018-08-19T14:36:40.224Z,29.53
2018-08-19T14:39:14.948Z,29.25
2018-08-19T14:41:49.396Z,31.68
2018-08-19T14:44:24.096Z,31.64
2018-08-19T14:46:59.447Z,30.31
2018-08-19T14:49:34.114Z,32.57
2018-08-19T14:52:08.876Z,29.96
2018-08-19T14:54:57.918Z,31.36
2018-08-19T14:57:33.060Z,33.67
2018-08-19T15:00:10.884Z,37.56
2018-08-19T15:02:45.320Z,28.98
2018-08-19T15:05:21.450Z,28.95
2018-08-19T15:07:57.795Z,31.37
2018-08-19T15:10:32.516Z,29.20
2018-08-19T15:13:08.172Z,31.61
2018-08-19T15:15:43.206Z,29.65
2018-08-19T15:18:17.780Z,29.34
2018-08-19T15:20:55.145Z,32.32
2018-08-19T15:23:30.847Z,31.43
2018-08-19T15:26:05.827Z,31.84
2018-08-19T15:28:41.852Z,29.36
2018-08-19T15:31:21.873Z,32.43
2018-08-19T15:33:57.028Z,31.66
2018-08-19T15:36:31.982Z,33.75
2018-08-19T15:39:08.711Z,33.71
2018-08-19T15:41:43.151Z,30.79
2018-08-19T15:44:18.830Z,34.19
2018-08-19T15:46:53.448Z,33.35
2018-08-19T15:49:27.853Z,32.05
2018-08-19T15:52:12.576Z,30.70
2018-08-19T15:54:52.785Z,30.26
2018-08-19T15:57:28.420Z,31.18
2018-08-19T16:00:03.325Z,33.61
2018-08-19T16:02:37.989Z,30.67
2018-08-19T16:05:15.384Z,28.56
2018-08-19T16:07:50.715Z,30.40
2018-08-19T16:10:25.839Z,31.87
2018-08-19T16:13:04.253Z,29.15
2018-08-19T16:15:42.657Z,30.02
2018-08-19T16:18:17.656Z,30.89
2018-08-19T16:20:58.257Z,29.97
2018-08-19T16:23:33.057Z,32.95
2018-08-19T16:26:07.488Z,33.09
2018-08-19T16:28:41.860Z,32.09
2018-08-19T16:31:16.554Z,32.52
2018-08-19T16:33:55.349Z,30.67
2018-08-19T16:36:30.243Z,29.73
2018-08-19T16:39:09.835Z,31.73
2018-08-19T16:41:44.748Z,33.31
2018-08-19T16:44:19.246Z,34.06
2018-08-19T16:46:54.414Z,30.93
2018-08-19T16:49:28.955Z,32.54
2018-08-19T16:52:04.711Z,34.37
2018-08-19T16:54:40.020Z,34.15
2018-08-19T16:57:14.662Z,30.56
2018-08-19T16:59:49.669Z,29.98
2018-08-19T17:02:24.309Z,32.47
2018-08-19T17:04:58.729Z,32.13
2018-08-19T17:07:33.176Z,31.72
2018-08-19T17:10:08.326Z,32.59
2018-08-19T17:12:42.711Z,35.08
2018-08-19T17:15:17.617Z,34.79
2018-08-19T17:17:51.969Z,33.65
2018-08-19T17:20:26.244Z,32.55
2018-08-19T17:23:00.648Z,34.82
2018-08-19T17:25:35.364Z,34.51
2018-08-19T17:28:18.224Z,34.55
2018-08-19T17:30:54.228Z,37.09
2018-08-19T17:33:30.740Z,37.24
2018-08-19T17:36:05.628Z,39.21
2018-08-19T17:38:40.188Z,38.80
2018-08-19T17:41:14.799Z,39.13
2018-08-19T17:43:49.432Z,38.52
2018-08-19T17:46:23.993Z,38.81
2018-08-19T17:48:58.834Z,40.39
2018-08-19T17:51:35.145Z,39.99
2018-08-19T17:54:14.707Z,43.15
2018-08-19T17:56:49.205Z,43.17
2018-08-19T17:59:23.581Z,42.30
2018-08-19T18:01:58.232Z,43.92
2018-08-19T18:04:38.284Z,44.65
2018-08-19T18:07:14.796Z,44.66
2018-08-19T18:10:03.807Z,45.76
2018-08-19T18:12:38.116Z,45.80
2018-08-19T18:15:13.444Z,44.95
2018-08-19T18:17:55.155Z,46.00
2018-08-19T18:20:34.807Z,46.45
2018-08-19T18:23:17.960Z,47.82
2018-08-19T18:25:52.628Z,47.91
2018-08-19T18:28:29.253Z,47.16
2018-08-19T18:31:10.644Z,48.25
2018-08-19T18:34:00.255Z,48.30
2018-08-19T18:36:35.956Z,50.34
2018-08-19T18:39:11.437Z,49.95
2018-08-19T18:41:46.576Z,50.88
2018-08-19T18:44:20.847Z,52.09
2018-08-19T18:46:55.764Z,51.76
2018-08-19T18:49:30.336Z,51.72
2018-08-19T18:52:10.875Z,51.56
2018-08-19T18:54:52.031Z,53.54
2018-08-19T18:57:28.876Z,54.03
2018-08-19T19:00:03.687Z,54.33
2018-08-19T19:02:38.253Z,54.32
2018-08-19T19:05:26.860Z,54.82
2018-08-19T19:08:07.348Z,54.77
2018-08-19T19:11:01.147Z,54.88
2018-08-19T19:13:36.954Z,55.67
2018-08-19T19:16:12.282Z,55.00
2018-08-19T19:18:49.912Z,55.83
2018-08-19T19:21:25.362Z,54.52
2018-08-19T19:24:00.013Z,55.24
2018-08-19T19:26:40.000Z,55.86
2018-08-19T19:29:18.456Z,57.12
2018-08-19T19:32:02.717Z,57.08
2018-08-19T19:34:37.201Z,56.31
2018-08-19T19:37:12.815Z,57.71
2018-08-19T19:39:50.621Z,58.10
2018-08-19T19:42:25.143Z,58.46
2018-08-19T19:45:00.238Z,58.36
2018-08-19T19:47:35.226Z,58.84
2018-08-19T19:50:10.923Z,59.42
2018-08-19T19:52:54.135Z,58.74
2018-08-19T19:55:31.862Z,59.35
2018-08-19T19:58:06.660Z,59.12
2018-08-19T20:00:53.180Z,59.09
2018-08-19T20:03:33.589Z,58.86
2018-08-19T20:06:08.491Z,59.05
2018-08-19T20:08:42.995Z,60.01
2018-08-19T20:11:22.280Z,61.14
2018-08-19T20:13:58.837Z,59.98
2018-08-19T20:16:33.588Z,61.98
2018-08-19T20:19:08.251Z,60.67
2018-08-19T20:21:42.920Z,61.12
2018-08-19T20:24:17.866Z,62.14
2018-08-19T20:26:52.676Z,62.32
2018-08-19T20:29:27.024Z,62.62
2018-08-19T20:32:01.640Z,62.50
2018-08-19T20:34:36.188Z,62.98
2018-08-19T20:37:10.973Z,62.38
2018-08-19T20:39:48.190Z,63.35
2018-08-19T20:42:22.918Z,63.19
2018-08-19T20:44:57.966Z,63.25
2018-08-19T20:47:33.920Z,62.64
2018-08-19T20:50:09.213Z,64.01
2018-08-19T20:52:47.978Z,63.61
2018-08-19T20:55:23.288Z,64.29
2018-08-19T20:57:58.242Z,64.64
2018-08-19T21:00:34.551Z,64.20
2018-08-19T21:03:15.452Z,63.96
2018-08-19T21:05:49.764Z,65.07
2018-08-19T21:08:24.257Z,65.70
2018-08-19T21:10:59.452Z,65.05
2018-08-19T21:13:34.292Z,64.52
2018-08-19T21:16:08.863Z,65.08
2018-08-19T21:18:45.428Z,64.78
2018-08-19T21:21:20.360Z,65.27
2018-08-19T21:23:54.942Z,65.80
2018-08-19T21:26:29.605Z,66.42
2018-08-19T21:29:04.872Z,66.19
2018-08-19T21:31:49.109Z,65.72
2018-08-19T21:34:24.050Z,66.72
2018-08-19T21:36:59.916Z,66.65
2018-08-19T21:39:35.377Z,66.44
2018-08-19T21:42:09.768Z,66.81
2018-08-19T21:44:44.112Z,66.15
2018-08-19T21:47:18.756Z,66.89
2018-08-19T21:49:57.360Z,67.49
2018-08-19T21:52:32.136Z,66.69
2018-08-19T21:55:08.760Z,66.14
2018-08-19T21:57:43.248Z,66.67
2018-08-19T22:00:17.572Z,67.83
2018-08-19T22:02:57.776Z,67.29
2018-08-19T22:05:34.602Z,67.11
2018-08-19T22:08:10.017Z,67.77
2018-08-19T22:10:45.815Z,67.85
2018-08-19T22:13:21.447Z,68.38
2018-08-19T22:15:55.756Z,68.17
2018-08-19T22:18:32.712Z,68.28
2018-08-19T22:21:14.467Z,68.15
2018-08-19T22:23:50.244Z,69.00
2018-08-19T22:26:25.113Z,68.44
2018-08-19T22:29:13.926Z,68.25
2018-08-19T22:31:50.251Z,67.95
2018-08-19T22:34:25.027Z,67.76
2018-08-19T22:37:00.337Z,68.78
2018-08-19T22:39:41.677Z,69.01
2018-08-19T22:42:31.590Z,68.69
2018-08-19T22:45:10.199Z,68.86
2018-08-19T22:47:44.606Z,68.92
2018-08-19T22:50:22.931Z,68.41
2018-08-19T22:52:57.496Z,68.71
2018-08-19T22:55:32.348Z,69.14
2018-08-19T22:58:12.692Z,69.22
2018-08-19T23:00:48.025Z,68.68
2018-08-19T23:03:27.484Z,68.73
2018-08-19T23:06:04.038Z,69.27
2018-08-19T23:08:38.799Z,68.60
2018-08-19T23:11:13.954Z,69.40
2018-08-19T23:14:00.951Z,68.62
2018-08-19T23:16:41.996Z,69.09
2018-08-19T23:19:20.474Z,68.50
2018-08-19T23:21:55.868Z,68.37
2018-08-19T23:24:30.649Z,68.38
2018-08-19T23:27:05.612Z,67.68
2018-08-19T23:29:40.177Z,66.84
2018-08-19T23:32:14.813Z,66.97
2018-08-19T23:34:49.685Z,66.29
2018-08-19T23:37:24.119Z,67.03
2018-08-19T23:39:58.579Z,66.86
2018-08-19T23:42:33.059Z,67.00
2018-08-19T23:45:07.716Z,66.32
2018-08-19T23:47:42.228Z,67.31
2018-08-19T23:50:19.762Z,66.72
2018-08-19T23:53:00.037Z,66.64
2018-08-19T23:55:36.676Z,66.65
2018-08-19T23:58:11.815Z,66.97
